Time;durP1;ratioP1;P1;durP2;ratioP2;P2;SDS_P1;SDS_P2;PMS_P1;PMS_P2;Temp;Humidity;BMP_temperature;BMP_pressure;BME280_temperature;BME280_humidity;BME280_pressure;Samples;Min_cycle;Max_cycle;Signal;HPM_P1;HPM_P2
2021/08/30 00:01:10;;;;;;;3.72;3.38;;;18.00;99.90;;;;;;5052261;28;20270;-78
2021/08/30 00:03:37;;;;;;;4.55;4.15;;;18.00;99.90;;;;;;5049949;28;20247;-78
2021/08/30 00:06:04;;;;;;;4.10;3.70;;;18.00;99.90;;;;;;5060463;28;20708;-78
2021/08/30 00:08:31;;;;;;;5.10;4.60;;;18.00;99.90;;;;;;5060252;28;20188;-79
2021/08/30 00:10:59;;;;;;;4.25;3.85;;;18.00;99.90;;;;;;5058035;28;20289;-78
2021/08/30 00:13:26;;;;;;;4.88;4.47;;;18.00;99.90;;;;;;5047982;28;20584;-79
2021/08/30 00:15:56;;;;;;;4.95;4.18;;;18.00;99.90;;;;;;5037002;28;20189;-78
2021/08/30 00:18:23;;;;;;;3.78;3.38;;;18.00;99.90;;;;;;5039348;28;20195;-78
2021/08/30 00:20:49;;;;;;;4.50;4.10;;;18.00;99.90;;;;;;5058139;28;20701;-78
2021/08/30 00:23:16;;;;;;;5.30;4.68;;;18.00;99.90;;;;;;5049004;28;20203;-78
2021/08/30 00:25:43;;;;;;;4.75;4.30;;;18.00;99.90;;;;;;5043001;28;20211;-79
2021/08/30 00:28:11;;;;;;;3.90;3.50;;;18.00;99.90;;;;;;5055664;28;20203;-79
2021/08/30 00:30:38;;;;;;;5.32;4.65;;;18.00;99.90;;;;;;5050194;28;20188;-79
2021/08/30 00:33:05;;;;;;;4.60;4.20;;;18.00;99.90;;;;;;5051648;28;20203;-78
2021/08/30 00:35:32;;;;;;;4.68;4.22;;;18.00;99.90;;;;;;5057730;28;20656;-77
2021/08/30 00:37:58;;;;;;;5.20;4.80;;;18.00;99.90;;;;;;5055623;28;20221;-77
2021/08/30 00:40:25;;;;;;;5.80;4.75;;;18.00;99.90;;;;;;5050247;28;20285;-77
2021/08/30 00:42:52;;;;;;;4.82;4.32;;;17.90;99.90;;;;;;5047841;28;20194;-77
2021/08/30 00:45:20;;;;;;;5.25;4.68;;;17.90;99.90;;;;;;5048420;28;20215;-77
2021/08/30 00:47:47;;;;;;;6.82;4.45;;;17.90;99.90;;;;;;5039033;28;20545;-77
2021/08/30 00:50:15;;;;;;;9.65;4.65;;;17.90;99.90;;;;;;5050544;28;20250;-77
2021/08/30 00:52:43;;;;;;;5.30;4.80;;;17.90;99.90;;;;;;5049090;28;20200;-77
2021/08/30 00:55:11;;;;;;;4.53;4.13;;;18.00;99.90;;;;;;5049991;28;20210;-77
2021/08/30 00:57:38;;;;;;;5.30;4.80;;;17.90;99.90;;;;;;5044625;28;20262;-76
2021/08/30 01:00:06;;;;;;;5.60;4.97;;;17.90;99.90;;;;;;5050680;28;20195;-76
2021/08/30 01:02:35;;;;;;;6.50;4.90;;;17.90;99.90;;;;;;5041731;28;20250;-77
2021/08/30 01:05:02;;;;;;;6.30;5.70;;;17.90;99.90;;;;;;5046629;28;20265;-76
2021/08/30 01:07:38;;;;;;;4.15;3.78;;;17.90;99.90;;;;;;5048265;28;20269;-76
2021/08/30 01:10:09;;;;;;;5.97;5.38;;;17.90;99.90;;;;;;5046715;28;20659;-76
2021/08/30 01:12:44;;;;;;;5.03;4.57;;;17.90;99.90;;;;;;5051044;28;20200;-77
2021/08/30 01:15:16;;;;;;;4.40;4.00;;;17.90;99.90;;;;;;5047621;28;20273;-76
2021/08/30 01:17:46;;;;;;;5.15;4.65;;;17.80;99.90;;;;;;5037128;28;20268;-76
2021/08/30 01:20:25;;;;;;;5.80;4.72;;;17.90;99.90;;;;;;5048425;28;20709;-76
2021/08/30 01:22:54;;;;;;;5.95;5.35;;;17.90;99.90;;;;;;5050921;28;20322;-76
2021/08/30 01:25:22;;;;;;;6.13;5.50;;;17.80;99.90;;;;;;5047341;28;20288;-76
2021/08/30 01:27:50;;;;;;;4.85;4.35;;;17.90;99.90;;;;;;5050243;28;20200;-77
2021/08/30 01:30:20;;;;;;;5.18;4.53;;;17.90;99.90;;;;;;5048655;28;21569;-77
2021/08/30 01:32:51;;;;;;;6.20;4.97;;;17.80;99.90;;;;;;5044327;28;20208;-77
2021/08/30 01:35:20;;;;;;;5.63;5.07;;;17.80;99.90;;;;;;5049173;28;20236;-76
2021/08/30 01:37:49;;;;;;;5.45;4.95;;;17.80;99.90;;;;;;5052962;28;20297;-76
2021/08/30 01:40:19;;;;;;;5.70;4.97;;;17.80;99.90;;;;;;5048936;28;20195;-76
2021/08/30 01:42:50;;;;;;;5.25;4.25;;;17.80;99.90;;;;;;5051505;28;20194;-76
2021/08/30 01:45:20;;;;;;;5.93;5.32;;;17.80;99.90;;;;;;5050715;28;20207;-76
2021/08/30 01:47:51;;;;;;;5.00;4.50;;;17.80;99.90;;;;;;5037306;28;20196;-76
2021/08/30 01:50:20;;;;;;;6.97;5.20;;;17.80;99.90;;;;;;5046669;28;20196;-76
2021/08/30 01:52:48;;;;;;;6.45;5.80;;;17.80;99.90;;;;;;5056525;28;20206;-77
2021/08/30 01:55:23;;;;;;;6.30;4.50;;;17.80;99.90;;;;;;5048635;28;20203;-77
2021/08/30 02:00:44;;;;;;;6.80;5.90;;;17.90;99.90;;;;;;5054758;28;20213;-77
2021/08/30 02:03:13;;;;;;;5.65;5.15;;;17.80;99.90;;;;;;5050187;28;20190;-78
2021/08/30 02:05:41;;;;;;;4.90;4.40;;;17.80;99.90;;;;;;5060357;28;20251;-77
2021/08/30 02:08:08;;;;;;;5.47;4.75;;;17.80;99.90;;;;;;5049114;28;20658;-77
2021/08/30 02:10:35;;;;;;;5.30;4.78;;;17.80;99.90;;;;;;5052486;28;20557;-77
2021/08/30 02:13:02;;;;;;;8.50;6.05;;;17.80;99.90;;;;;;5058286;28;20756;-77
2021/08/30 02:15:30;;;;;;;5.75;5.15;;;17.80;99.90;;;;;;5050107;28;20219;-77
2021/08/30 02:18:01;;;;;;;5.50;5.00;;;17.80;99.90;;;;;;5051235;28;20253;-77
2021/08/30 02:20:30;;;;;;;5.80;5.30;;;17.80;99.90;;;;;;5042186;28;20576;-77
2021/08/30 02:23:02;;;;;;;6.25;5.65;;;17.70;99.90;;;;;;5046734;28;20187;-77
2021/08/30 02:25:31;;;;;;;6.35;5.35;;;17.80;99.90;;;;;;5045144;28;20353;-77
2021/08/30 02:27:59;;;;;;;6.90;4.72;;;17.80;99.90;;;;;;5053094;28;20229;-77
2021/08/30 02:30:30;;;;;;;5.88;5.32;;;17.70;99.90;;;;;;5054757;28;20658;-77
2021/08/30 02:33:01;;;;;;;6.00;5.38;;;17.70;99.90;;;;;;5051709;28;20463;-77
2021/08/30 02:35:33;;;;;;;5.20;4.80;;;17.70;99.90;;;;;;5045372;28;20223;-77
2021/08/30 02:38:01;;;;;;;5.97;5.45;;;17.70;99.90;;;;;;5051458;28;20601;-78
2021/08/30 02:40:29;;;;;;;4.93;4.53;;;17.70;99.90;;;;;;5048595;28;20247;-76
2021/08/30 02:43:00;;;;;;;5.97;4.90;;;17.70;99.90;;;;;;5049996;28;20199;-76
2021/08/30 02:45:28;;;;;;;5.45;4.88;;;17.70;99.90;;;;;;5038516;28;20273;-76
2021/08/30 02:47:57;;;;;;;6.57;5.20;;;17.70;99.90;;;;;;5052456;28;20554;-76
2021/08/30 02:50:25;;;;;;;7.53;5.43;;;17.70;99.90;;;;;;5049925;28;20199;-79
2021/08/30 02:52:53;;;;;;;6.35;5.25;;;17.80;99.90;;;;;;5058897;28;20199;-78
2021/08/30 02:55:21;;;;;;;6.57;5.90;;;17.70;99.90;;;;;;5051301;28;20718;-79
2021/08/30 02:57:49;;;;;;;6.95;5.88;;;17.70;99.90;;;;;;5057079;28;20306;-76
2021/08/30 03:00:17;;;;;;;6.53;5.13;;;17.70;99.90;;;;;;5058864;28;20207;-77
2021/08/30 03:02:44;;;;;;;5.75;5.15;;;17.70;99.90;;;;;;5056527;28;20286;-76
2021/08/30 03:05:12;;;;;;;5.88;5.28;;;17.70;99.90;;;;;;5046977;28;20195;-77
2021/08/30 03:07:39;;;;;;;6.18;5.57;;;17.70;99.90;;;;;;5054403;28;20188;-76
2021/08/30 03:10:08;;;;;;;5.72;4.82;;;17.70;99.90;;;;;;5050322;28;20199;-75
2021/08/30 03:12:39;;;;;;;5.00;4.50;;;17.70;99.90;;;;;;5052745;28;20199;-75
2021/08/30 03:15:08;;;;;;;5.80;5.18;;;17.70;99.90;;;;;;5047911;28;20196;-76
2021/08/30 03:17:36;;;;;;;5.70;5.10;;;17.70;99.90;;;;;;5044093;28;20695;-75
2021/08/30 03:20:05;;;;;;;6.95;5.30;;;17.70;99.90;;;;;;5037914;28;20219;-76
2021/08/30 03:22:33;;;;;;;8.20;6.20;;;17.70;99.90;;;;;;5060779;28;20191;-76
2021/08/30 03:25:02;;;;;;;6.05;5.45;;;17.70;99.90;;;;;;5043345;28;20337;-76
2021/08/30 03:27:31;;;;;;;5.95;5.35;;;17.80;99.90;;;;;;5053186;28;20222;-75
2021/08/30 03:29:59;;;;;;;7.30;6.05;;;17.70;99.90;;;;;;5046443;28;20188;-75
2021/08/30 03:32:26;;;;;;;5.85;5.35;;;17.70;99.90;;;;;;5059560;28;20310;-75
2021/08/30 03:34:53;;;;;;;5.78;5.28;;;17.70;99.90;;;;;;5048913;28;20192;-75
2021/08/30 03:37:20;;;;;;;6.90;5.95;;;17.70;99.90;;;;;;5058049;28;20599;-75
2021/08/30 03:39:47;;;;;;;10.27;5.10;;;17.70;99.90;;;;;;5045571;28;20191;-76
2021/08/30 03:42:15;;;;;;;6.88;5.57;;;17.70;99.90;;;;;;5050514;28;20195;-75
2021/08/30 03:44:43;;;;;;;8.95;6.68;;;17.70;99.90;;;;;;5051258;28;20253;-75
2021/08/30 03:47:11;;;;;;;5.93;5.30;;;17.70;99.90;;;;;;5050140;28;20226;-76
2021/08/30 03:49:38;;;;;;;8.90;6.47;;;17.70;99.90;;;;;;5042037;28;20286;-75
2021/08/30 03:52:06;;;;;;;8.27;6.05;;;17.70;99.90;;;;;;5051031;28;20203;-75
2021/08/30 03:54:33;;;;;;;5.78;5.03;;;17.60;99.90;;;;;;5049196;28;20208;-75
2021/08/30 03:57:02;;;;;;;7.32;6.30;;;17.60;99.90;;;;;;5047632;28;20200;-76
2021/08/30 03:59:34;;;;;;;5.88;5.35;;;17.60;99.90;;;;;;5051968;28;20599;-76
2021/08/30 04:02:05;;;;;;;6.55;5.95;;;17.60;99.90;;;;;;5057389;28;20211;-78
2021/08/30 04:04:33;;;;;;;6.55;5.57;;;17.70;99.90;;;;;;5049860;28;20246;-77
2021/08/30 04:07:01;;;;;;;6.50;5.68;;;17.60;99.90;;;;;;5055386;28;20622;-77
2021/08/30 04:09:28;;;;;;;6.45;5.85;;;17.60;99.90;;;;;;5044891;28;20677;-77
2021/08/30 04:11:56;;;;;;;5.93;5.32;;;17.60;99.90;;;;;;5048589;28;20602;-76
2021/08/30 04:14:23;;;;;;;6.72;6.13;;;17.60;99.90;;;;;;5054939;28;20203;-76
2021/08/30 04:16:51;;;;;;;7.78;6.18;;;17.60;99.90;;;;;;5051084;28;20253;-75
2021/08/30 04:19:19;;;;;;;6.05;5.45;;;17.70;99.90;;;;;;5038062;28;20222;-75
2021/08/30 04:21:46;;;;;;;7.50;6.75;;;17.60;99.90;;;;;;5055446;28;20194;-76
2021/08/30 04:24:13;;;;;;;7.25;5.78;;;17.60;99.90;;;;;;5041080;28;20640;-76
2021/08/30 04:26:39;;;;;;;7.13;6.47;;;17.60;99.90;;;;;;5057568;28;20261;-77
2021/08/30 04:29:06;;;;;;;7.03;6.22;;;17.60;99.90;;;;;;5053350;28;20268;-76
2021/08/30 04:31:33;;;;;;;6.72;6.13;;;17.60;99.90;;;;;;5056853;28;20910;-76
2021/08/30 04:34:01;;;;;;;7.00;6.30;;;17.60;99.90;;;;;;5045856;28;20192;-76
2021/08/30 04:36:29;;;;;;;7.28;5.90;;;17.60;99.90;;;;;;5060914;28;20196;-76
2021/08/30 04:38:56;;;;;;;6.70;6.00;;;17.60;99.90;;;;;;5053313;28;20293;-76
2021/08/30 04:41:23;;;;;;;8.85;5.35;;;17.60;99.90;;;;;;5049210;28;20200;-76
2021/08/30 04:43:51;;;;;;;8.27;7.00;;;17.60;99.90;;;;;;5053002;28;20195;-76
2021/08/30 04:46:19;;;;;;;6.10;5.50;;;17.50;99.90;;;;;;5045993;28;20215;-76
2021/08/30 04:48:45;;;;;;;6.03;5.53;;;17.60;99.90;;;;;;5039988;28;20242;-77
2021/08/30 04:51:12;;;;;;;7.05;5.88;;;17.60;99.90;;;;;;5042921;28;20253;-76
2021/08/30 04:53:40;;;;;;;7.88;6.32;;;17.60;99.90;;;;;;5044869;28;20619;-76
2021/08/30 04:56:07;;;;;;;8.45;7.55;;;17.60;99.90;;;;;;5044312;28;20203;-76
2021/08/30 04:58:34;;;;;;;7.22;6.38;;;17.60;99.90;;;;;;5058879;28;20211;-76
2021/08/30 05:01:00;;;;;;;6.60;6.00;;;17.60;99.90;;;;;;5049057;28;20604;-77
2021/08/30 05:03:27;;;;;;;8.43;5.05;;;17.60;99.90;;;;;;5045866;28;20481;-77
2021/08/30 05:05:54;;;;;;;6.90;6.07;;;17.60;99.90;;;;;;5049892;28;20558;-77
2021/08/30 05:08:21;;;;;;;6.82;6.13;;;17.60;99.90;;;;;;5051600;28;20191;-78
2021/08/30 05:10:49;;;;;;;7.78;6.55;;;17.60;99.90;;;;;;5052329;28;20226;-78
2021/08/30 05:13:15;;;;;;;6.88;6.18;;;17.60;99.90;;;;;;5042866;28;20760;-77
2021/08/30 05:15:42;;;;;;;6.75;6.05;;;17.60;99.90;;;;;;5045042;28;20195;-77
2021/08/30 05:18:09;;;;;;;7.65;6.10;;;17.60;99.90;;;;;;5048668;28;20283;-77
2021/08/30 05:20:36;;;;;;;6.85;6.10;;;17.60;99.90;;;;;;5051232;28;20228;-76
2021/08/30 05:23:02;;;;;;;6.70;6.10;;;17.50;99.90;;;;;;5048716;28;20610;-77
2021/08/30 05:25:29;;;;;;;7.10;6.38;;;17.60;99.90;;;;;;5049277;28;20670;-78
2021/08/30 05:27:57;;;;;;;7.57;6.80;;;17.60;99.90;;;;;;5050844;28;20231;-77
2021/08/30 05:30:24;;;;;;;5.95;5.15;;;17.60;99.90;;;;;;5048780;28;20191;-77
2021/08/30 05:32:51;;;;;;;6.32;5.43;;;17.60;99.90;;;;;;5043361;28;20220;-77
2021/08/30 05:35:17;;;;;;;6.97;6.40;;;17.60;99.90;;;;;;5051432;28;20254;-77
2021/08/30 05:37:44;;;;;;;7.68;6.80;;;17.60;99.90;;;;;;5051210;28;20211;-77
2021/08/30 05:40:12;;;;;;;7.30;6.63;;;17.60;99.90;;;;;;5045675;28;20195;-78
2021/08/30 05:42:39;;;;;;;7.43;6.82;;;17.60;99.90;;;;;;5043524;28;20196;-77
2021/08/30 05:45:08;;;;;;;7.80;7.10;;;17.60;99.90;;;;;;5052227;28;20316;-77
2021/08/30 05:47:35;;;;;;;7.15;6.30;;;17.60;99.90;;;;;;5043559;28;20615;-77
2021/08/30 05:50:02;;;;;;;8.40;7.00;;;17.50;99.90;;;;;;5051860;28;20195;-77
2021/08/30 05:52:28;;;;;;;8.57;7.68;;;17.60;99.90;;;;;;5048504;28;20195;-76
2021/08/30 05:54:55;;;;;;;7.22;6.05;;;17.60;99.90;;;;;;5044272;28;20195;-77
2021/08/30 05:57:22;;;;;;;8.00;7.20;;;17.60;99.90;;;;;;5048496;28;20207;-77
2021/08/30 05:59:48;;;;;;;8.00;6.35;;;17.60;99.90;;;;;;5049042;28;20242;-77
2021/08/30 06:02:16;;;;;;;12.35;9.88;;;17.60;99.90;;;;;;5048279;28;20198;-76
2021/08/30 06:04:43;;;;;;;8.55;7.53;;;17.60;99.90;;;;;;5049554;28;20261;-76
2021/08/30 06:07:10;;;;;;;8.50;7.68;;;17.60;99.90;;;;;;5051817;28;20216;-77
2021/08/30 06:09:37;;;;;;;9.43;8.52;;;17.60;99.90;;;;;;5045654;28;20234;-77
2021/08/30 06:12:04;;;;;;;11.40;10.27;;;17.60;99.90;;;;;;5054063;28;20580;-77
2021/08/30 06:14:31;;;;;;;10.63;9.27;;;17.60;99.90;;;;;;5051868;28;20222;-77
2021/08/30 06:16:57;;;;;;;11.15;9.80;;;17.60;99.90;;;;;;5049611;28;20192;-77
2021/08/30 06:19:26;;;;;;;9.73;8.82;;;17.60;99.90;;;;;;5037514;28;20266;-77
2021/08/30 06:21:52;;;;;;;9.85;8.85;;;17.60;99.90;;;;;;5055830;28;20207;-76
2021/08/30 06:24:19;;;;;;;10.27;8.85;;;17.60;99.90;;;;;;5054786;28;20195;-76
2021/08/30 06:26:46;;;;;;;9.68;8.68;;;17.60;99.90;;;;;;5052864;28;20573;-76
2021/08/30 06:29:12;;;;;;;11.82;10.27;;;17.60;99.90;;;;;;5045825;28;20711;-76
2021/08/30 06:31:39;;;;;;;12.52;11.30;;;17.60;99.90;;;;;;5054574;28;20220;-77
2021/08/30 06:34:06;;;;;;;10.70;9.65;;;17.60;99.90;;;;;;5054281;28;20199;-77
2021/08/30 06:36:34;;;;;;;10.10;8.95;;;17.60;99.90;;;;;;5052093;28;20653;-77
2021/08/30 06:39:01;;;;;;;14.70;9.10;;;17.60;99.90;;;;;;5056614;28;20576;-76
2021/08/30 06:41:27;;;;;;;10.05;9.05;;;17.60;99.90;;;;;;5054738;28;20195;-77
2021/08/30 06:43:54;;;;;;;10.00;8.98;;;17.60;99.90;;;;;;5062188;28;20194;-76
2021/08/30 06:46:21;;;;;;;14.52;9.25;;;17.60;99.90;;;;;;5044937;28;20269;-76
2021/08/30 06:48:48;;;;;;;11.98;10.20;;;17.60;99.90;;;;;;5047881;28;20218;-76
2021/08/30 06:51:14;;;;;;;11.57;10.50;;;17.60;99.90;;;;;;5042740;28;20253;-77
2021/08/30 06:53:43;;;;;;;8.82;7.95;;;17.60;99.90;;;;;;5051171;28;20566;-77
2021/08/30 06:56:09;;;;;;;9.80;8.38;;;17.70;99.90;;;;;;5051433;28;20202;-76
2021/08/30 06:58:36;;;;;;;10.98;9.93;;;17.60;99.90;;;;;;5056894;28;20248;-75
2021/08/30 07:01:03;;;;;;;9.07;8.18;;;17.70;99.90;;;;;;5049298;28;20753;-76
2021/08/30 07:03:29;;;;;;;12.43;7.30;;;17.70;99.90;;;;;;5051465;28;20534;-76
2021/08/30 07:05:56;;;;;;;9.15;8.20;;;17.60;99.90;;;;;;5050222;28;20594;-76
2021/08/30 07:08:23;;;;;;;9.40;8.45;;;17.70;99.90;;;;;;5050741;28;20219;-76
2021/08/30 07:10:51;;;;;;;9.10;8.02;;;17.80;99.90;;;;;;5053511;28;20600;-76
2021/08/30 07:13:17;;;;;;;8.70;7.80;;;17.90;99.90;;;;;;5051284;28;20202;-78
2021/08/30 07:15:47;;;;;;;8.48;7.38;;;18.00;99.90;;;;;;5053597;28;20652;-77
2021/08/30 07:18:14;;;;;;;9.02;7.85;;;18.30;99.90;;;;;;5047803;28;20195;-77
2021/08/30 07:20:40;;;;;;;9.75;8.15;;;18.50;99.90;;;;;;5038218;28;20204;-77
2021/08/30 07:23:08;;;;;;;9.50;7.90;;;18.70;99.90;;;;;;5051418;28;20644;-78
2021/08/30 07:25:34;;;;;;;7.75;6.95;;;18.80;99.90;;;;;;5052241;28;20196;-77
2021/08/30 07:28:02;;;;;;;8.90;7.63;;;19.00;99.90;;;;;;5052987;28;20571;-76
2021/08/30 07:30:29;;;;;;;11.52;10.43;;;19.10;99.90;;;;;;5051139;28;20195;-76
2021/08/30 07:32:56;;;;;;;9.30;8.40;;;19.10;99.90;;;;;;5050525;28;20499;-76
2021/08/30 07:35:23;;;;;;;11.85;9.57;;;19.10;99.90;;;;;;5058070;28;20192;-76
2021/08/30 07:37:50;;;;;;;11.15;9.13;;;19.00;99.90;;;;;;5038172;28;20203;-76
2021/08/30 07:40:17;;;;;;;9.20;8.27;;;18.90;99.90;;;;;;5048250;28;20234;-76
2021/08/30 07:42:44;;;;;;;10.65;8.90;;;18.70;99.90;;;;;;5048849;28;20199;-75
2021/08/30 07:45:12;;;;;;;10.60;9.45;;;18.60;99.90;;;;;;5051016;28;20602;-75
2021/08/30 07:47:41;;;;;;;9.45;8.50;;;18.60;99.90;;;;;;5044239;28;20216;-76
2021/08/30 07:50:09;;;;;;;10.70;9.60;;;18.50;99.90;;;;;;5040999;28;20196;-75
2021/08/30 07:52:36;;;;;;;10.15;9.13;;;18.40;99.90;;;;;;5051097;28;20276;-77
2021/08/30 07:55:04;;;;;;;10.23;8.60;;;18.30;99.90;;;;;;5053663;28;20206;-77
2021/08/30 07:57:31;;;;;;;9.02;7.85;;;18.30;99.90;;;;;;5051842;28;20199;-77
2021/08/30 07:59:58;;;;;;;11.35;9.98;;;18.30;99.90;;;;;;5058512;28;20199;-81
2021/08/30 08:02:26;;;;;;;10.18;8.95;;;18.30;99.90;;;;;;5052316;28;20208;-81
2021/08/30 08:04:53;;;;;;;9.35;8.45;;;18.20;99.90;;;;;;5062719;28;20199;-86
2021/08/30 08:07:19;;;;;;;10.25;8.85;;;18.20;99.90;;;;;;5058219;28;20211;-85
2021/08/30 08:09:46;;;;;;;10.70;9.20;;;18.20;99.90;;;;;;5057992;28;20241;-83
2021/08/30 08:12:13;;;;;;;9.80;8.90;;;18.20;99.90;;;;;;5053580;28;20246;-86
2021/08/30 08:14:39;;;;;;;9.15;8.32;;;18.20;99.90;;;;;;5053455;28;20599;-84
2021/08/30 08:17:06;;;;;;;9.88;8.88;;;18.20;99.90;;;;;;5060173;28;20203;-84
2021/08/30 08:19:34;;;;;;;9.10;8.20;;;18.20;99.90;;;;;;5053590;28;20227;-85
2021/08/30 08:22:02;;;;;;;10.07;9.07;;;18.10;99.90;;;;;;5051785;28;20211;-77
2021/08/30 08:24:29;;;;;;;9.43;8.52;;;18.10;99.90;;;;;;5047405;28;20199;-76
2021/08/30 08:26:56;;;;;;;10.85;9.75;;;18.10;99.90;;;;;;5062624;28;20194;-77
2021/08/30 08:29:24;;;;;;;11.45;10.25;;;18.10;99.90;;;;;;5051343;28;20200;-76
2021/08/30 08:31:50;;;;;;;10.88;9.20;;;18.10;99.90;;;;;;5048765;28;20197;-76
2021/08/30 08:34:17;;;;;;;10.20;9.10;;;18.20;99.90;;;;;;5049164;28;20678;-78
2021/08/30 08:36:45;;;;;;;10.18;9.15;;;18.10;99.90;;;;;;5048629;28;20187;-76
2021/08/30 08:39:12;;;;;;;10.55;9.45;;;18.00;99.90;;;;;;5048474;28;20209;-76
2021/08/30 08:41:39;;;;;;;13.60;9.55;;;18.10;99.90;;;;;;5051715;28;20269;-77
2021/08/30 08:44:08;;;;;;;11.25;10.05;;;18.10;99.90;;;;;;5049497;28;20238;-76
2021/08/30 08:46:38;;;;;;;9.90;8.90;;;18.10;99.90;;;;;;5049555;28;20207;-76
2021/08/30 08:49:05;;;;;;;10.35;9.00;;;18.10;99.90;;;;;;5049926;28;20245;-76
2021/08/30 08:51:33;;;;;;;9.43;8.48;;;18.20;99.90;;;;;;5041452;28;20187;-76
2021/08/30 08:54:01;;;;;;;11.18;10.13;;;18.30;99.90;;;;;;5048820;28;20283;-77
2021/08/30 08:56:29;;;;;;;12.48;9.85;;;18.40;99.90;;;;;;5052997;28;20188;-76
2021/08/30 08:58:55;;;;;;;11.40;10.32;;;18.50;99.90;;;;;;5048105;28;20215;-77
2021/08/30 09:01:24;;;;;;;11.27;10.02;;;18.70;99.90;;;;;;5046671;28;20321;-76
2021/08/30 09:03:55;;;;;;;10.57;9.25;;;18.90;99.90;;;;;;5049279;28;20202;-76
2021/08/30 09:06:27;;;;;;;14.15;10.88;;;19.10;99.90;;;;;;5052801;28;20196;-76
2021/08/30 09:08:58;;;;;;;11.60;10.50;;;19.10;99.90;;;;;;5046898;28;20243;-78
2021/08/30 09:11:36;;;;;;;11.07;10.00;;;19.10;99.90;;;;;;5045415;28;20208;-76
2021/08/30 09:14:03;;;;;;;9.27;8.48;;;19.10;99.90;;;;;;5049844;28;20227;-77
2021/08/30 09:16:30;;;;;;;9.75;8.85;;;19.10;99.90;;;;;;5052558;28;20203;-76
2021/08/30 09:19:04;;;;;;;9.52;8.63;;;19.00;99.90;;;;;;5051193;28;20199;-76
2021/08/30 09:21:31;;;;;;;10.20;9.15;;;19.00;99.90;;;;;;5038345;28;20200;-76
2021/08/30 09:23:57;;;;;;;9.27;8.45;;;18.90;99.90;;;;;;5041462;28;20196;-78
2021/08/30 09:26:25;;;;;;;12.30;10.90;;;18.90;99.90;;;;;;5044022;28;20199;-76
2021/08/30 09:28:55;;;;;;;9.55;8.70;;;18.80;99.90;;;;;;5051790;28;20265;-78
2021/08/30 09:31:23;;;;;;;12.15;11.05;;;18.80;99.90;;;;;;5048360;28;20192;-77
2021/08/30 09:33:52;;;;;;;12.35;9.75;;;18.80;99.90;;;;;;5040326;28;20198;-77
2021/08/30 09:36:20;;;;;;;11.20;9.05;;;18.80;99.90;;;;;;5050681;28;20203;-76
2021/08/30 09:38:53;;;;;;;10.32;9.27;;;18.80;99.90;;;;;;5048125;28;20633;-77
2021/08/30 09:41:20;;;;;;;11.40;10.23;;;18.90;99.90;;;;;;5049416;28;20195;-76
2021/08/30 09:43:48;;;;;;;10.30;8.95;;;19.00;99.90;;;;;;5051502;28;20294;-76
2021/08/30 09:46:14;;;;;;;9.05;8.20;;;19.10;99.90;;;;;;5048438;28;20542;-77
2021/08/30 09:48:44;;;;;;;10.25;9.18;;;19.10;99.90;;;;;;5043831;28;20231;-76
2021/08/30 09:51:10;;;;;;;10.60;9.50;;;19.30;99.90;;;;;;5052389;28;20191;-75
2021/08/30 09:53:37;;;;;;;9.70;8.70;;;19.40;99.90;;;;;;5048204;28;20221;-75
2021/08/30 09:56:04;;;;;;;10.00;9.00;;;19.40;99.90;;;;;;5031948;28;20388;-74
2021/08/30 09:58:31;;;;;;;9.88;8.75;;;19.50;99.90;;;;;;5040967;28;20253;-76
2021/08/30 10:01:01;;;;;;;9.57;8.68;;;19.60;99.90;;;;;;5044986;28;20221;-75
2021/08/30 10:03:38;;;;;;;9.85;8.15;;;19.70;99.90;;;;;;5046658;28;20261;-77
2021/08/30 10:06:05;;;;;;;10.27;9.35;;;19.70;99.90;;;;;;5049508;28;20253;-76
2021/08/30 10:08:35;;;;;;;8.68;7.88;;;19.70;99.90;;;;;;5048663;28;20220;-77
2021/08/30 10:11:02;;;;;;;8.68;7.80;;;19.70;99.90;;;;;;5050534;28;20644;-77
2021/08/30 10:13:29;;;;;;;10.02;9.02;;;19.70;99.90;;;;;;5050722;28;20195;-77
2021/08/30 10:15:56;;;;;;;10.85;9.23;;;19.70;99.90;;;;;;5051662;28;20188;-76
2021/08/30 10:18:24;;;;;;;9.40;8.50;;;19.60;99.90;;;;;;5043771;28;20206;-76
2021/08/30 10:20:54;;;;;;;10.40;9.43;;;19.60;99.90;;;;;;5051004;28;20269;-76
2021/08/30 10:23:21;;;;;;;11.25;10.18;;;19.70;99.90;;;;;;5049139;28;20617;-77
2021/08/30 10:25:58;;;;;;;10.07;9.18;;;19.70;99.90;;;;;;5031350;28;20729;-76
2021/08/30 10:28:35;;;;;;;9.18;8.27;;;19.70;99.90;;;;;;5045182;28;20218;-77
2021/08/30 10:31:14;;;;;;;9.40;8.50;;;19.80;99.90;;;;;;5040771;28;20671;-76
2021/08/30 10:33:46;;;;;;;10.60;9.55;;;19.80;99.90;;;;;;5048339;28;20196;-77
2021/08/30 10:36:14;;;;;;;9.40;8.50;;;19.90;99.90;;;;;;5040675;28;20274;-77
2021/08/30 10:38:41;;;;;;;9.05;8.25;;;19.90;99.90;;;;;;5049032;28;20203;-76
2021/08/30 10:41:17;;;;;;;10.05;9.13;;;19.80;99.90;;;;;;5047530;28;20191;-78
2021/08/30 10:43:45;;;;;;;9.98;9.02;;;19.80;99.90;;;;;;5031340;28;20646;-77
2021/08/30 10:46:16;;;;;;;10.75;8.75;;;19.80;99.90;;;;;;5031565;28;20283;-76
2021/08/30 10:48:50;;;;;;;9.55;8.55;;;19.70;99.90;;;;;;5047063;28;20215;-76
2021/08/30 10:51:19;;;;;;;8.50;7.70;;;19.70;99.90;;;;;;5043004;28;20266;-76
2021/08/30 10:53:55;;;;;;;8.70;7.90;;;19.70;99.90;;;;;;5044122;28;20572;-76
2021/08/30 10:56:26;;;;;;;10.13;9.23;;;19.80;99.90;;;;;;5031372;28;20262;-76
2021/08/30 10:58:53;;;;;;;9.30;8.40;;;19.80;99.90;;;;;;5047851;28;20200;-76
2021/08/30 11:01:19;;;;;;;9.80;9.00;;;19.80;99.90;;;;;;5047469;28;20207;-76
2021/08/30 11:03:54;;;;;;;9.07;8.18;;;19.90;99.90;;;;;;5049551;28;20218;-76
2021/08/30 11:06:21;;;;;;;9.85;8.95;;;19.90;99.90;;;;;;5052357;28;20195;-77
2021/08/30 11:08:48;;;;;;;8.63;7.80;;;19.90;99.90;;;;;;5045582;28;20266;-77
2021/08/30 11:11:17;;;;;;;8.90;7.80;;;19.90;99.90;;;;;;5054197;28;20250;-76
2021/08/30 11:13:56;;;;;;;8.80;8.00;;;19.90;99.90;;;;;;5054682;28;20253;-76
2021/08/30 11:16:24;;;;;;;8.75;7.95;;;19.90;99.90;;;;;;5048951;28;20202;-77
2021/08/30 11:19:03;;;;;;;9.60;8.63;;;19.90;99.90;;;;;;5050579;28;20195;-77
2021/08/30 11:21:44;;;;;;;10.80;7.70;;;19.80;99.90;;;;;;5053386;28;20196;-75
2021/08/30 11:24:23;;;;;;;11.82;8.82;;;19.80;99.90;;;;;;5044204;28;20202;-77
2021/08/30 11:26:50;;;;;;;8.55;7.75;;;19.80;99.90;;;;;;5048871;28;20628;-76
2021/08/30 11:29:16;;;;;;;11.23;8.00;;;19.80;99.90;;;;;;5053016;28;20216;-76
2021/08/30 11:31:43;;;;;;;7.93;7.13;;;19.80;99.90;;;;;;5044686;28;20275;-76
2021/08/30 11:34:25;;;;;;;8.05;7.35;;;19.80;99.90;;;;;;5048076;28;20192;-76
2021/08/30 11:36:55;;;;;;;9.15;8.35;;;19.80;99.90;;;;;;5053722;28;20187;-76
2021/08/30 11:39:23;;;;;;;8.90;8.00;;;19.90;99.90;;;;;;5043688;28;20196;-76
2021/08/30 11:41:56;;;;;;;8.35;7.65;;;19.90;99.90;;;;;;5050622;28;20187;-76
2021/08/30 11:44:23;;;;;;;7.95;7.20;;;19.90;99.90;;;;;;5050376;28;20187;-76
2021/08/30 11:46:52;;;;;;;9.20;8.30;;;19.90;99.90;;;;;;5047521;28;20195;-76
2021/08/30 11:49:21;;;;;;;7.47;6.88;;;20.00;99.90;;;;;;5047858;28;20304;-77
2021/08/30 11:51:48;;;;;;;8.15;7.38;;;20.00;99.90;;;;;;5051685;28;20196;-76
2021/08/30 11:54:17;;;;;;;7.85;7.15;;;20.00;99.90;;;;;;5047079;28;20587;-76
2021/08/30 11:56:58;;;;;;;8.25;7.45;;;20.00;99.90;;;;;;5053117;28;20255;-76
2021/08/30 11:59:31;;;;;;;8.90;8.00;;;20.00;99.90;;;;;;5051209;28;20199;-76
2021/08/30 12:01:59;;;;;;;8.57;7.35;;;20.00;99.90;;;;;;5053613;28;20211;-77
2021/08/30 12:04:29;;;;;;;8.20;7.40;;;20.10;99.90;;;;;;5040026;28;20285;-76
2021/08/30 12:06:58;;;;;;;7.50;6.80;;;20.10;99.90;;;;;;5052676;28;20191;-75
2021/08/30 12:09:25;;;;;;;8.38;7.53;;;20.10;99.90;;;;;;5044889;28;20310;-77
2021/08/30 12:11:54;;;;;;;8.25;7.50;;;20.10;99.90;;;;;;5049965;28;20206;-75
2021/08/30 12:14:23;;;;;;;7.50;6.80;;;20.20;99.90;;;;;;5047902;28;20196;-77
2021/08/30 12:17:01;;;;;;;6.90;6.13;;;20.20;99.90;;;;;;5042068;28;20204;-76
2021/08/30 12:19:31;;;;;;;8.88;8.02;;;20.20;99.90;;;;;;5040898;28;20646;-77
2021/08/30 12:21:58;;;;;;;8.60;7.80;;;20.20;99.90;;;;;;5049882;28;20538;-77
2021/08/30 12:24:25;;;;;;;8.55;7.60;;;20.30;99.90;;;;;;5047840;28;20196;-76
2021/08/30 12:26:53;;;;;;;8.07;7.38;;;20.30;99.90;;;;;;5050763;28;20286;-76
2021/08/30 12:29:20;;;;;;;8.00;6.90;;;20.30;99.90;;;;;;5048188;28;20222;-77
2021/08/30 12:31:55;;;;;;;9.02;8.13;;;20.30;99.90;;;;;;5051219;28;20527;-76
2021/08/30 12:34:25;;;;;;;8.02;6.88;;;20.30;99.90;;;;;;5047303;28;20199;-77
2021/08/30 12:36:53;;;;;;;7.97;7.18;;;20.30;99.90;;;;;;5048486;28;20195;-75
2021/08/30 12:39:20;;;;;;;7.88;6.35;;;20.40;99.90;;;;;;5041204;28;20252;-75
2021/08/30 12:41:47;;;;;;;7.65;6.95;;;20.40;99.90;;;;;;5053054;28;20226;-76
2021/08/30 12:44:13;;;;;;;10.13;7.50;;;20.30;99.90;;;;;;5051421;28;20195;-75
2021/08/30 12:46:40;;;;;;;8.25;7.45;;;20.40;99.90;;;;;;5052065;28;20241;-75
2021/08/30 12:49:07;;;;;;;7.30;6.63;;;20.40;99.90;;;;;;5050735;28;20580;-77
2021/08/30 12:51:34;;;;;;;6.35;5.82;;;20.40;99.90;;;;;;5050859;28;20595;-76